Time;durP1;ratioP1;P1;durP2;ratioP2;P2;SDS_P1;SDS_P2;PMS_P1;PMS_P2;Temp;Humidity;BMP_temperature;BMP_pressure;BME280_temperature;BME280_humidity;BME280_pressure;Samples;Min_cycle;Max_cycle;Signal;HPM_P1;HPM_P2
2022/07/13 00:00:14;;;;;;;6.75;6.15;;;21.80;99.90;;;;;;4928381;29;20070;-69
2022/07/13 00:02:39;;;;;;;7.30;6.55;;;21.80;99.90;;;;;;4923219;29;20552;-68
2022/07/13 00:05:08;;;;;;;7.30;6.13;;;21.80;99.90;;;;;;4928156;29;20094;-68
2022/07/13 00:07:34;;;;;;;7.50;5.93;;;21.80;99.90;;;;;;4923940;29;20044;-68
2022/07/13 00:10:00;;;;;;;6.20;5.60;;;21.80;99.90;;;;;;4924292;29;20372;-68
2022/07/13 00:12:25;;;;;;;6.72;6.07;;;21.70;99.90;;;;;;4927768;29;20063;-68
2022/07/13 00:14:51;;;;;;;6.80;6.20;;;21.70;99.90;;;;;;4925716;29;20127;-68
2022/07/13 00:17:17;;;;;;;6.75;6.13;;;21.70;99.90;;;;;;4926141;29;20048;-68
2022/07/13 00:19:45;;;;;;;6.40;5.80;;;21.60;99.90;;;;;;4911313;29;20482;-68
2022/07/13 00:22:11;;;;;;;7.57;6.28;;;21.60;99.90;;;;;;4912160;29;20384;-68
2022/07/13 00:24:37;;;;;;;6.93;6.32;;;21.60;99.90;;;;;;4914932;29;20059;-68
2022/07/13 00:27:03;;;;;;;10.13;6.43;;;21.60;99.90;;;;;;4929899;29;20055;-68
2022/07/13 00:29:28;;;;;;;8.35;6.30;;;21.60;99.90;;;;;;4925323;29;20047;-68
2022/07/13 00:31:56;;;;;;;6.70;5.97;;;21.60;99.90;;;;;;4929438;29;20553;-68
2022/07/13 00:34:22;;;;;;;7.15;6.43;;;21.60;99.90;;;;;;4910467;29;20059;-68
2022/07/13 00:36:48;;;;;;;7.18;6.15;;;21.60;99.90;;;;;;4929239;29;20479;-69
2022/07/13 00:39:13;;;;;;;9.30;6.72;;;21.60;99.90;;;;;;4913393;29;20535;-68
2022/07/13 00:41:46;;;;;;;8.38;6.65;;;21.60;99.90;;;;;;4926575;29;20040;-68
2022/07/13 00:44:13;;;;;;;7.63;6.78;;;21.60;99.90;;;;;;4930246;29;20103;-68
2022/07/13 00:46:41;;;;;;;7.28;6.50;;;21.60;99.90;;;;;;4924624;29;20036;-68
2022/07/13 00:49:07;;;;;;;8.50;6.80;;;21.60;99.90;;;;;;4910141;29;21167;-67
2022/07/13 00:51:33;;;;;;;7.65;6.72;;;21.60;99.90;;;;;;4908692;29;20106;-68
2022/07/13 00:54:01;;;;;;;7.57;6.88;;;21.60;99.90;;;;;;4927813;29;20043;-68
2022/07/13 00:56:28;;;;;;;7.32;6.63;;;21.70;99.90;;;;;;4908908;29;20066;-68
2022/07/13 00:58:53;;;;;;;;;;;21.60;99.90;;;;;;4915749;29;20395;-68
2022/07/13 01:01:19;;;;;;;7.70;7.00;;;21.60;99.90;;;;;;4915484;29;19923;-68
2022/07/13 01:03:45;;;;;;;8.38;6.70;;;21.60;99.90;;;;;;4930676;29;20483;-68
2022/07/13 01:06:11;;;;;;;7.05;6.43;;;21.60;99.90;;;;;;4932683;29;20055;-68
2022/07/13 01:08:36;;;;;;;7.53;5.85;;;21.60;99.90;;;;;;4929322;29;21038;-68
2022/07/13 01:11:02;;;;;;;8.52;6.25;;;21.60;99.90;;;;;;4933237;29;20791;-68
2022/07/13 01:13:28;;;;;;;6.18;5.50;;;21.60;99.90;;;;;;4915538;29;20044;-69
2022/07/13 01:15:54;;;;;;;7.75;6.72;;;21.60;99.90;;;;;;4914065;29;20052;-68
2022/07/13 01:18:20;;;;;;;7.30;6.50;;;21.60;99.90;;;;;;4926886;29;20070;-68
2022/07/13 01:20:46;;;;;;;8.27;6.47;;;21.60;99.90;;;;;;4933812;29;20054;-68
2022/07/13 01:23:16;;;;;;;8.55;7.78;;;21.60;99.90;;;;;;4928950;29;20504;-68
2022/07/13 01:25:42;;;;;;;7.90;7.20;;;21.50;99.90;;;;;;4923312;29;20094;-68
2022/07/13 01:28:08;;;;;;;8.50;7.32;;;21.60;99.90;;;;;;4931848;29;20126;-68
2022/07/13 01:30:34;;;;;;;7.57;6.88;;;21.60;99.90;;;;;;4933414;29;20035;-68
2022/07/13 01:33:00;;;;;;;9.03;8.13;;;21.50;99.90;;;;;;4907947;29;20066;-68
2022/07/13 01:35:26;;;;;;;9.77;7.82;;;21.50;99.90;;;;;;4927535;29;20479;-68
2022/07/13 01:37:54;;;;;;;8.90;7.70;;;21.50;99.90;;;;;;4929867;29;20039;-68
2022/07/13 01:40:20;;;;;;;7.85;7.07;;;21.50;99.90;;;;;;4932842;29;20047;-68
2022/07/13 01:42:48;;;;;;;9.48;7.07;;;21.50;99.90;;;;;;4908089;29;20048;-69
2022/07/13 01:45:16;;;;;;;9.40;8.30;;;21.50;99.90;;;;;;4911900;29;20063;-68
2022/07/13 01:47:44;;;;;;;8.85;7.43;;;21.40;99.90;;;;;;4931396;29;20323;-68
2022/07/13 01:50:11;;;;;;;9.57;8.52;;;21.40;99.90;;;;;;4930133;29;20048;-68
2022/07/13 01:52:37;;;;;;;8.50;7.70;;;21.40;99.90;;;;;;4929080;29;20054;-68
2022/07/13 01:55:04;;;;;;;10.00;8.70;;;21.30;99.90;;;;;;4913886;29;20130;-68
2022/07/13 01:57:30;;;;;;;9.05;8.13;;;21.30;99.90;;;;;;4931649;29;20043;-68
2022/07/13 02:00:14;;;;;;;10.50;8.95;;;21.40;99.90;;;;;;4930029;29;20521;-68
2022/07/13 02:02:41;;;;;;;9.65;7.85;;;21.30;99.90;;;;;;4925591;29;20598;-68
2022/07/13 02:05:08;;;;;;;9.00;8.15;;;21.30;99.90;;;;;;4914049;29;20055;-68
2022/07/13 02:07:34;;;;;;;9.52;8.63;;;21.30;99.90;;;;;;4927810;29;20051;-68
2022/07/13 02:09:59;;;;;;;9.57;8.05;;;21.30;99.90;;;;;;4921577;29;20052;-69
2022/07/13 02:12:25;;;;;;;9.50;7.50;;;21.20;99.90;;;;;;4908693;29;20047;-68
2022/07/13 02:14:51;;;;;;;8.68;7.82;;;21.20;99.90;;;;;;4929970;29;20130;-69
2022/07/13 02:17:16;;;;;;;10.10;7.72;;;21.20;99.90;;;;;;4927447;29;20039;-68
2022/07/13 02:19:48;;;;;;;9.02;7.53;;;21.20;99.90;;;;;;4927811;29;20487;-68
2022/07/13 02:22:13;;;;;;;7.72;7.00;;;21.20;99.90;;;;;;4931974;29;20048;-68
2022/07/13 02:24:39;;;;;;;8.63;7.82;;;21.20;99.90;;;;;;4931866;29;20047;-68
2022/07/13 02:27:10;;;;;;;10.27;7.93;;;21.20;99.90;;;;;;4930888;29;20086;-68
2022/07/13 02:29:36;;;;;;;9.93;8.90;;;21.20;99.90;;;;;;4931922;29;20042;-68
2022/07/13 02:32:02;;;;;;;12.25;9.82;;;21.20;99.90;;;;;;4928855;29;20407;-68
2022/07/13 02:34:28;;;;;;;11.40;9.43;;;21.20;99.90;;;;;;4932502;29;20471;-68
2022/07/13 02:36:56;;;;;;;11.35;9.88;;;21.20;99.90;;;;;;4928336;29;20031;-68
2022/07/13 02:39:22;;;;;;;10.77;9.68;;;21.20;99.90;;;;;;4933002;29;20051;-68
2022/07/13 02:41:49;;;;;;;11.07;9.98;;;21.20;99.90;;;;;;4931606;29;20403;-68
2022/07/13 02:44:15;;;;;;;10.40;9.33;;;21.20;99.90;;;;;;4931879;29;20086;-68
2022/07/13 02:46:41;;;;;;;12.48;10.43;;;21.20;99.90;;;;;;4928547;29;20291;-69
2022/07/13 02:49:06;;;;;;;10.93;9.73;;;21.20;99.90;;;;;;4928118;29;20115;-68
2022/07/13 02:51:32;;;;;;;11.23;10.13;;;21.20;99.90;;;;;;4915934;29;20056;-68
2022/07/13 02:53:57;;;;;;;12.05;10.38;;;21.10;99.90;;;;;;4909592;29;20483;-68
2022/07/13 02:56:23;;;;;;;11.20;10.02;;;21.10;99.90;;;;;;4932241;29;20047;-68
2022/07/13 02:58:49;;;;;;;12.07;10.75;;;21.10;99.90;;;;;;4929068;29;20491;-68
2022/07/13 03:01:14;;;;;;;12.25;11.05;;;21.10;99.90;;;;;;4926248;29;20035;-68
2022/07/13 03:03:40;;;;;;;11.10;10.00;;;21.10;99.90;;;;;;4926932;29;20511;-68
2022/07/13 03:06:05;;;;;;;12.13;10.77;;;21.10;99.90;;;;;;4915187;29;20043;-68
2022/07/13 03:08:31;;;;;;;12.50;10.40;;;21.10;99.90;;;;;;4929637;29;20127;-68
2022/07/13 03:10:57;;;;;;;10.85;9.75;;;21.10;99.90;;;;;;4932303;29;20091;-69
2022/07/13 03:13:22;;;;;;;11.50;10.40;;;21.10;99.90;;;;;;4932238;29;20387;-68
2022/07/13 03:15:51;;;;;;;11.50;10.30;;;21.10;99.90;;;;;;4914555;29;20055;-68
2022/07/13 03:18:17;;;;;;;12.80;9.60;;;21.10;99.90;;;;;;4926922;29;20385;-68
2022/07/13 03:20:42;;;;;;;11.25;10.13;;;21.10;99.90;;;;;;4909950;29;20062;-68
2022/07/13 03:23:08;;;;;;;11.48;10.38;;;21.10;99.90;;;;;;4930307;29;20050;-68
2022/07/13 03:25:34;;;;;;;10.75;9.75;;;21.10;99.90;;;;;;4930475;29;20054;-68
2022/07/13 03:27:59;;;;;;;11.30;10.10;;;21.10;99.90;;;;;;4930577;29;20063;-68
2022/07/13 03:30:25;;;;;;;10.65;9.55;;;21.10;99.90;;;;;;4928013;29;20040;-68
2022/07/13 03:32:51;;;;;;;10.70;9.48;;;21.10;99.90;;;;;;4909399;29;20039;-68
2022/07/13 03:35:16;;;;;;;10.85;9.38;;;21.10;99.90;;;;;;4924535;29;20048;-68
2022/07/13 03:37:42;;;;;;;11.57;10.35;;;21.10;99.90;;;;;;4926970;29;20048;-68
2022/07/13 03:40:08;;;;;;;10.75;9.65;;;21.10;99.90;;;;;;4928639;29;20540;-68
2022/07/13 03:42:37;;;;;;;10.40;9.40;;;21.10;99.90;;;;;;4926164;29;20079;-68
2022/07/13 03:45:03;;;;;;;10.77;9.73;;;21.10;99.90;;;;;;4911025;29;20062;-69
2022/07/13 03:47:28;;;;;;;12.10;9.70;;;21.10;99.90;;;;;;4931207;29;20055;-68
2022/07/13 03:49:54;;;;;;;11.07;9.85;;;21.10;99.90;;;;;;4924691;29;20446;-68
2022/07/13 03:52:20;;;;;;;10.35;9.20;;;21.10;99.90;;;;;;4913362;29;20055;-68
2022/07/13 03:54:46;;;;;;;10.20;9.10;;;21.10;99.90;;;;;;4930315;29;20487;-68
2022/07/13 03:57:12;;;;;;;10.40;8.77;;;21.10;99.90;;;;;;4929355;29;20046;-68
2022/07/13 03:59:38;;;;;;;10.77;9.23;;;21.10;99.90;;;;;;4908463;29;20526;-68
2022/07/13 04:02:03;;;;;;;9.45;8.55;;;21.10;99.90;;;;;;4922898;29;20199;-68
2022/07/13 04:04:29;;;;;;;10.07;8.98;;;21.10;99.90;;;;;;4926941;29;20047;-68
2022/07/13 04:06:55;;;;;;;10.27;8.98;;;21.10;99.90;;;;;;4929396;29;20138;-68
2022/07/13 04:09:20;;;;;;;10.30;9.02;;;21.10;99.90;;;;;;4930786;29;20071;-68
2022/07/13 04:11:48;;;;;;;9.70;8.70;;;21.10;99.90;;;;;;4927913;29;20043;-68
2022/07/13 04:14:13;;;;;;;9.98;9.07;;;21.10;99.90;;;;;;4928018;29;20039;-68
2022/07/13 04:16:39;;;;;;;10.48;9.07;;;21.10;99.90;;;;;;4930328;29;20046;-68
2022/07/13 04:19:05;;;;;;;9.68;8.70;;;21.10;99.90;;;;;;4913067;29;20084;-68
2022/07/13 04:21:31;;;;;;;9.05;7.70;;;21.10;99.90;;;;;;4928938;29;20699;-68
2022/07/13 04:23:57;;;;;;;9.23;7.95;;;21.10;99.90;;;;;;4927519;29;20051;-68
2022/07/13 04:26:22;;;;;;;9.68;7.50;;;21.10;99.90;;;;;;4930870;29;20185;-68
2022/07/13 04:28:48;;;;;;;10.60;6.85;;;21.10;99.90;;;;;;4911279;29;20058;-68
2022/07/13 04:31:14;;;;;;;7.90;7.13;;;21.10;99.90;;;;;;4928223;29;20056;-68
2022/07/13 04:33:39;;;;;;;8.50;6.50;;;21.10;99.90;;;;;;4928580;29;20131;-68
2022/07/13 04:36:08;;;;;;;7.97;6.63;;;21.10;99.90;;;;;;4931354;29;20044;-68
2022/07/13 04:38:35;;;;;;;7.28;6.30;;;21.10;99.90;;;;;;4925513;29;20171;-68
2022/07/13 04:41:00;;;;;;;8.23;5.75;;;21.10;99.90;;;;;;4930737;29;20052;-68
2022/07/13 04:43:26;;;;;;;8.15;5.82;;;21.20;99.90;;;;;;4913191;29;20044;-68
2022/07/13 04:45:52;;;;;;;7.43;5.90;;;21.20;99.90;;;;;;4935123;29;20043;-68
2022/07/13 04:48:18;;;;;;;8.57;5.85;;;21.20;99.90;;;;;;4911556;29;20047;-68
2022/07/13 04:50:43;;;;;;;8.18;6.15;;;21.20;99.90;;;;;;4932126;29;20142;-69
2022/07/13 04:53:09;;;;;;;7.07;6.10;;;21.30;99.90;;;;;;4932476;29;20439;-68
2022/07/13 04:55:38;;;;;;;7.22;6.18;;;21.30;99.90;;;;;;4932527;29;20574;-68
2022/07/13 04:58:04;;;;;;;6.95;6.20;;;21.30;99.90;;;;;;4916703;29;20044;-68
2022/07/13 05:00:29;;;;;;;7.63;5.95;;;21.30;99.90;;;;;;4934384;29;20095;-68
2022/07/13 05:03:01;;;;;;;6.47;5.60;;;21.30;99.90;;;;;;4928314;29;20048;-68
2022/07/13 05:05:32;;;;;;;7.22;5.20;;;21.30;99.90;;;;;;4929728;29;20120;-68
2022/07/13 05:08:01;;;;;;;6.28;5.30;;;21.30;99.90;;;;;;4932738;29;20043;-68
2022/07/13 05:10:27;;;;;;;6.40;4.90;;;21.30;99.90;;;;;;4932098;29;20059;-68
2022/07/13 05:12:52;;;;;;;5.85;4.95;;;21.40;99.90;;;;;;4927539;29;20040;-68
2022/07/13 05:15:20;;;;;;;5.53;4.47;;;21.40;99.90;;;;;;4933474;29;20047;-68
2022/07/13 05:17:46;;;;;;;6.60;4.05;;;21.40;99.90;;;;;;4927636;29;20549;-68
2022/07/13 05:20:12;;;;;;;5.28;4.03;;;21.40;99.90;;;;;;4933180;29;20075;-68
2022/07/13 05:22:37;;;;;;;4.32;3.75;;;21.40;99.90;;;;;;4933256;29;20118;-69
2022/07/13 05:25:03;;;;;;;5.78;3.90;;;21.40;99.90;;;;;;4932904;29;20063;-68
2022/07/13 05:27:29;;;;;;;4.78;3.70;;;21.50;99.90;;;;;;4927703;29;20135;-68
2022/07/13 05:29:55;;;;;;;4.28;3.70;;;21.50;99.90;;;;;;4934408;29;20123;-68
2022/07/13 05:32:20;;;;;;;5.30;3.38;;;21.60;99.90;;;;;;4924321;29;20039;-68
2022/07/13 05:34:46;;;;;;;3.90;3.10;;;21.60;99.90;;;;;;4926079;29;20043;-68
2022/07/13 05:37:12;;;;;;;3.47;2.80;;;21.60;99.90;;;;;;4926858;29;20048;-68
2022/07/13 05:39:47;;;;;;;6.20;3.23;;;21.60;99.90;;;;;;4930538;29;20052;-68
2022/07/13 05:42:13;;;;;;;5.00;3.00;;;21.60;99.90;;;;;;4931351;29;20047;-68
2022/07/13 05:44:39;;;;;;;5.18;2.80;;;21.70;99.90;;;;;;4914429;29;20051;-68
2022/07/13 05:47:05;;;;;;;4.93;2.97;;;21.70;99.90;;;;;;4928736;29;20078;-70
2022/07/13 05:49:31;;;;;;;3.53;2.75;;;21.80;99.90;;;;;;4916920;29;20138;-70
2022/07/13 05:51:57;;;;;;;3.08;2.78;;;21.80;99.90;;;;;;4925080;29;20111;-66
2022/07/13 05:54:23;;;;;;;3.33;2.97;;;21.80;99.90;;;;;;4904886;29;20052;-66
2022/07/13 05:56:49;;;;;;;4.68;2.63;;;21.90;99.90;;;;;;4913252;29;20057;-67
2022/07/13 05:59:15;;;;;;;3.97;2.38;;;21.90;99.90;;;;;;4929698;29;20562;-67
2022/07/13 06:01:40;;;;;;;4.05;2.47;;;22.00;99.90;;;;;;4930890;29;20162;-66
2022/07/13 06:04:06;;;;;;;6.28;2.95;;;22.00;99.90;;;;;;4925869;29;20139;-67
2022/07/13 06:06:32;;;;;;;3.35;2.53;;;22.10;99.90;;;;;;4928359;29;20048;-67
2022/07/13 06:08:57;;;;;;;4.43;2.55;;;22.10;99.90;;;;;;4904454;29;20191;-67
2022/07/13 06:11:23;;;;;;;2.78;2.38;;;22.20;99.90;;;;;;4928732;29;20067;-67
2022/07/13 06:13:48;;;;;;;3.58;2.33;;;22.20;99.90;;;;;;4904882;29;20055;-68
2022/07/13 06:16:14;;;;;;;2.97;2.50;;;22.30;99.90;;;;;;4904693;29;20052;-69
2022/07/13 06:18:40;;;;;;;2.95;2.72;;;22.30;99.90;;;;;;4922063;29;20094;-68
2022/07/13 06:21:05;;;;;;;4.18;2.80;;;22.40;99.90;;;;;;4928570;29;20591;-67
2022/07/13 06:23:31;;;;;;;5.03;3.08;;;22.50;99.90;;;;;;4908896;29;20070;-68
2022/07/13 06:25:58;;;;;;;3.35;2.90;;;22.50;99.90;;;;;;4929969;29;20051;-68
2022/07/13 06:28:24;;;;;;;;;;;22.60;99.90;;;;;;4924154;29;20111;-68
2022/07/13 06:30:49;;;;;;;3.40;3.10;;;22.60;99.90;;;;;;4911663;29;19930;-68
2022/07/13 06:33:15;;;;;;;3.70;3.15;;;22.70;99.90;;;;;;4926311;29;20055;-68
2022/07/13 06:35:41;;;;;;;4.47;3.15;;;22.70;99.90;;;;;;4930982;29;20376;-68
2022/07/13 06:38:06;;;;;;;6.57;3.70;;;22.80;99.90;;;;;;4928725;29;20110;-68
2022/07/13 06:40:32;;;;;;;5.18;3.65;;;22.80;99.90;;;;;;4912408;29;20076;-67
2022/07/13 06:42:59;;;;;;;5.77;3.80;;;22.90;99.90;;;;;;4924045;29;20143;-68
2022/07/13 06:45:25;;;;;;;7.70;3.63;;;23.00;99.90;;;;;;4927182;29;20078;-68
2022/07/13 06:47:51;;;;;;;9.02;4.15;;;23.00;99.90;;;;;;4927723;29;20055;-68
2022/07/13 06:50:18;;;;;;;7.43;4.60;;;23.10;99.90;;;;;;4918049;29;20094;-68
2022/07/13 06:52:44;;;;;;;5.13;4.25;;;23.20;99.90;;;;;;4929394;29;20055;-68
2022/07/13 06:55:11;;;;;;;6.38;4.65;;;23.20;99.90;;;;;;4910864;29;20406;-68
2022/07/13 06:57:36;;;;;;;;;;;23.30;99.90;;;;;;4923732;29;20044;-69
2022/07/13 07:00:06;;;;;;;7.83;4.93;;;23.30;99.90;;;;;;4932071;29;19945;-68
2022/07/13 07:02:32;;;;;;;7.03;5.63;;;23.30;99.90;;;;;;4910758;29;20384;-68
2022/07/13 07:04:58;;;;;;;7.90;5.10;;;23.30;99.90;;;;;;4924146;29;20525;-68
2022/07/13 07:07:24;;;;;;;7.55;5.10;;;23.30;99.90;;;;;;4904537;29;20043;-68
2022/07/13 07:09:50;;;;;;;8.00;5.60;;;23.30;99.90;;;;;;4918297;29;20455;-68
2022/07/13 07:12:16;;;;;;;8.02;5.57;;;23.30;99.90;;;;;;4902161;29;20108;-68
2022/07/13 07:14:41;;;;;;;8.80;5.90;;;23.30;99.90;;;;;;4902571;29;20782;-68
2022/07/13 07:17:07;;;;;;;7.13;6.10;;;23.40;99.90;;;;;;4907765;29;20047;-68
2022/07/13 07:19:33;;;;;;;9.27;5.90;;;23.50;99.90;;;;;;4932159;29;20071;-68
2022/07/13 07:21:58;;;;;;;6.93;5.60;;;23.50;99.90;;;;;;4913027;29;20043;-68
2022/07/13 07:24:25;;;;;;;6.22;5.63;;;23.60;99.90;;;;;;4927851;29;20124;-67
2022/07/13 07:26:51;;;;;;;9.10;6.05;;;23.70;99.90;;;;;;4903957;29;20048;-67
2022/07/13 07:29:17;;;;;;;6.55;5.43;;;23.80;99.90;;;;;;4909845;29;20055;-67
2022/07/13 07:31:42;;;;;;;13.38;5.28;;;23.90;99.90;;;;;;4911031;29;20491;-69
2022/07/13 07:34:08;;;;;;;7.93;5.88;;;24.00;99.90;;;;;;4906092;29;20052;-71
2022/07/13 07:36:34;;;;;;;8.98;5.90;;;24.00;99.90;;;;;;4925572;29;20039;-72
2022/07/13 07:39:00;;;;;;;8.98;5.40;;;24.10;99.90;;;;;;4912743;29;20131;-72
2022/07/13 07:41:25;;;;;;;8.77;5.50;;;24.10;99.90;;;;;;4916725;29;20114;-69
2022/07/13 07:43:51;;;;;;;10.45;6.30;;;24.10;99.90;;;;;;4904448;29;20040;-70
2022/07/13 07:46:16;;;;;;;10.40;6.53;;;24.20;99.90;;;;;;4915382;29;20051;-70
2022/07/13 07:48:42;;;;;;;8.13;5.97;;;24.20;99.90;;;;;;4927963;29;20123;-70
2022/07/13 07:51:08;;;;;;;7.30;5.60;;;24.20;99.90;;;;;;4918973;29;20633;-70
2022/07/13 07:53:34;;;;;;;8.95;6.18;;;24.20;99.90;;;;;;4912740;29;20040;-70
2022/07/13 07:55:59;;;;;;;8.88;6.75;;;24.30;99.90;;;;;;4909937;29;20091;-70
2022/07/13 07:58:25;;;;;;;9.57;6.55;;;24.30;99.90;;;;;;4931922;29;20032;-69
2022/07/13 08:00:50;;;;;;;8.63;7.10;;;24.30;99.90;;;;;;4901549;29;20064;-70
2022/07/13 08:03:16;;;;;;;11.45;8.05;;;24.30;99.90;;;;;;4922047;29;20116;-71
2022/07/13 08:05:48;;;;;;;8.65;7.75;;;24.40;99.90;;;;;;4911087;29;20554;-71
2022/07/13 08:08:16;;;;;;;10.68;7.20;;;24.30;99.90;;;;;;4908455;29;20047;-71
2022/07/13 08:10:41;;;;;;;9.77;6.97;;;24.40;99.90;;;;;;4912259;29;20063;-71
2022/07/13 08:13:07;;;;;;;9.95;7.38;;;24.40;99.90;;;;;;4920294;29;20047;-71
2022/07/13 08:15:33;;;;;;;8.43;7.50;;;24.40;99.90;;;;;;4926762;29;20138;-71
2022/07/13 08:17:59;;;;;;;10.95;8.32;;;24.40;99.90;;;;;;4914403;29;20055;-71
2022/07/13 08:20:25;;;;;;;11.38;7.82;;;24.40;99.90;;;;;;4932617;29;20150;-71
2022/07/13 08:22:51;;;;;;;11.23;8.55;;;24.50;99.90;;;;;;4911648;29;20039;-72
2022/07/13 08:25:17;;;;;;;13.90;7.70;;;24.60;99.90;;;;;;4929798;29;20471;-72
2022/07/13 08:27:43;;;;;;;9.35;7.63;;;24.60;99.90;;;;;;4911305;29;20055;-71
2022/07/13 08:30:10;;;;;;;11.98;8.18;;;24.60;99.90;;;;;;4930197;29;20052;-71
2022/07/13 08:32:36;;;;;;;11.23;8.13;;;24.70;99.90;;;;;;4924456;29;20044;-71
2022/07/13 08:40:32;;;;;;;10.70;8.63;;;25.00;99.90;;;;;;4922740;29;20047;-69
2022/07/13 08:43:01;;;;;;;9.70;8.32;;;25.10;99.90;;;;;;4924988;29;20044;-68
2022/07/13 08:45:26;;;;;;;12.70;8.20;;;25.20;99.90;;;;;;4926878;29;20435;-69
2022/07/13 08:47:52;;;;;;;12.18;7.85;;;25.30;99.90;;;;;;4910739;29;20071;-69
2022/07/13 08:50:21;;;;;;;13.18;8.68;;;25.30;99.90;;;;;;4904234;29;20138;-70
2022/07/13 08:52:48;;;;;;;10.82;8.10;;;25.40;99.90;;;;;;4894925;29;20072;-69
2022/07/13 08:55:14;;;;;;;8.73;7.38;;;25.40;99.90;;;;;;4911760;29;20048;-69
2022/07/13 08:57:43;;;;;;;7.35;6.57;;;25.50;99.90;;;;;;4926647;29;20131;-69
2022/07/13 09:00:11;;;;;;;9.20;7.80;;;25.50;99.90;;;;;;4928666;29;20050;-70
2022/07/13 09:02:38;;;;;;;10.68;8.02;;;25.50;99.90;;;;;;4908149;29;20067;-71
2022/07/13 09:05:05;;;;;;;11.88;8.38;;;25.60;99.90;;;;;;4929709;29;20044;-71
2022/07/13 09:07:33;;;;;;;11.98;8.20;;;25.60;99.90;;;;;;4924026;29;20076;-71
2022/07/13 09:09:59;;;;;;;8.75;7.75;;;25.60;99.90;;;;;;4912516;29;20043;-71
2022/07/13 09:12:27;;;;;;;8.52;7.03;;;25.70;99.90;;;;;;4930619;29;20055;-71
2022/07/13 09:15:06;;;;;;;10.82;7.28;;;25.70;99.90;;;;;;4913708;29;20055;-70
2022/07/13 09:17:38;;;;;;;10.82;7.70;;;25.80;99.90;;;;;;4913542;29;20055;-71
2022/07/13 09:20:12;;;;;;;9.07;6.55;;;25.90;99.90;;;;;;4934459;29;20060;-71
2022/07/13 09:23:01;;;;;;;9.63;7.53;;;26.00;99.90;;;;;;4915658;29;20103;-71
2022/07/13 09:25:37;;;;;;;10.70;7.30;;;26.10;99.90;;;;;;4925152;29;20051;-70
2022/07/13 09:28:05;;;;;;;9.98;7.40;;;26.20;99.90;;;;;;4929583;29;20064;-70
2022/07/13 09:30:32;;;;;;;10.38;7.70;;;26.20;99.90;;;;;;4933927;29;20055;-69
2022/07/13 09:33:01;;;;;;;11.07;8.30;;;26.30;99.90;;;;;;4928859;29;20052;-70
2022/07/13 09:35:50;;;;;;;9.88;7.10;;;26.40;99.90;;;;;;4913191;29;20055;-69
2022/07/13 09:38:28;;;;;;;10.57;7.25;;;26.40;99.90;;;;;;4925341;29;20130;-70
2022/07/13 09:40:54;;;;;;;8.48;7.53;;;26.50;99.90;;;;;;4913248;29;20126;-70
2022/07/13 09:46:10;;;;;;;10.63;8.18;;;26.50;99.90;;;;;;4920327;29;20056;-71
2022/07/13 09:48:37;;;;;;;9.25;7.18;;;26.60;99.90;;;;;;4923831;29;20484;-71
2022/07/13 09:51:03;;;;;;;;;;;26.60;99.90;;;;;;4923226;29;20424;-69
2022/07/13 09:53:31;;;;;;;9.38;7.65;;;26.60;99.90;;;;;;4929103;29;19922;-70
2022/07/13 09:55:59;;;;;;;9.48;7.43;;;26.70;99.90;;;;;;4929564;29;20119;-71
2022/07/13 09:58:30;;;;;;;10.25;8.20;;;26.70;99.90;;;;;;4932218;29;20048;-71
2022/07/13 10:00:58;;;;;;;12.02;8.38;;;26.80;99.90;;;;;;4935332;29;20134;-71
2022/07/13 10:03:24;;;;;;;10.00;8.48;;;26.80;99.90;;;;;;4915648;29;20058;-70
2022/07/13 10:05:52;;;;;;;10.18;8.02;;;26.90;99.90;;;;;;4932867;29;20044;-70
2022/07/13 10:08:18;;;;;;;11.40;8.55;;;27.00;99.90;;;;;;4930017;29;20488;-69
2022/07/13 10:10:45;;;;;;;12.07;8.35;;;27.00;99.90;;;;;;4909702;29;20553;-70
2022/07/13 10:13:12;;;;;;;11.20;7.80;;;27.00;99.90;;;;;;4928965;29;20158;-69
2022/07/13 10:15:41;;;;;;;10.13;7.93;;;27.10;99.90;;;;;;4928878;29;20052;-76
2022/07/13 10:18:16;;;;;;;9.57;7.18;;;27.10;99.90;;;;;;4925993;29;20058;-72
2022/07/13 10:20:53;;;;;;;10.73;6.85;;;27.20;99.90;;;;;;4925209;29;20048;-71
2022/07/13 10:23:37;;;;;;;9.70;7.78;;;27.30;99.90;;;;;;4911260;29;20471;-71
2022/07/13 10:26:03;;;;;;;10.80;7.97;;;27.40;99.90;;;;;;4931084;29;20059;-72
2022/07/13 10:28:33;;;;;;;9.70;8.10;;;27.40;99.90;;;;;;4929657;29;20542;-74
2022/07/13 10:31:28;;;;;;;9.32;8.32;;;27.50;99.90;;;;;;4914640;29;20051;-72
2022/07/13 10:33:57;;;;;;;8.98;6.78;;;27.50;99.90;;;;;;4906388;29;20052;-74
2022/07/13 10:36:47;;;;;;;8.80;6.20;;;27.40;99.90;;;;;;4926084;29;20074;-72
2022/07/13 10:39:13;;;;;;;8.15;6.30;;;27.40;99.90;;;;;;4933952;29;20138;-71
2022/07/13 10:42:03;;;;;;;8.17;5.90;;;27.30;99.90;;;;;;4909703;29;20075;-70
2022/07/13 10:44:43;;;;;;;6.55;5.22;;;27.30;99.90;;;;;;4907480;29;20060;-71
2022/07/13 10:47:13;;;;;;;7.97;5.35;;;27.50;99.90;;;;;;4921252;29;20036;-72
2022/07/13 10:49:44;;;;;;;6.57;4.97;;;27.60;99.90;;;;;;4911363;29;20139;-70
2022/07/13 10:52:42;;;;;;;6.90;4.53;;;27.60;99.90;;;;;;4929694;29;20194;-71
2022/07/13 10:55:11;;;;;;;8.07;4.00;;;27.50;97.10;;;;;;4928838;29;20407;-69
2022/07/13 10:57:39;;;;;;;5.90;3.38;;;27.40;96.70;;;;;;4908775;29;20131;-69
2022/07/13 11:00:18;;;;;;;;;;;27.30;96.90;;;;;;4926483;29;20515;-70
2022/07/13 11:02:50;;;;;;;7.07;3.80;;;27.20;99.60;;;;;;4931182;29;19923;-70
2022/07/13 11:05:18;;;;;;;3.95;2.97;;;27.20;98.40;;;;;;4910522;29;20048;-69
2022/07/13 11:07:49;;;;;;;6.78;2.80;;;27.20;95.60;;;;;;4915030;29;20114;-70
2022/07/13 11:10:22;;;;;;;4.65;3.42;;;27.10;92.50;;;;;;4912466;29;20058;-69
2022/07/13 11:13:12;;;;;;;5.43;3.10;;;27.20;91.30;;;;;;4932510;29;20036;-70
2022/07/13 11:15:54;;;;;;;5.22;3.60;;;27.20;92.00;;;;;;4915902;29;20048;-70
2022/07/13 11:18:23;;;;;;;5.32;3.08;;;27.20;97.20;;;;;;4931608;29;20138;-70
2022/07/13 11:21:22;;;;;;;5.95;2.70;;;27.40;94.20;;;;;;4911547;29;20043;-71
2022/07/13 11:27:03;;;;;;;4.20;2.55;;;27.70;91.20;;;;;;4911484;29;20051;-71
2022/07/13 11:29:55;;;;;;;5.75;2.75;;;27.90;91.30;;;;;;4926684;29;20044;-70
2022/07/13 11:32:21;;;;;;;5.05;3.05;;;28.10;79.90;;;;;;4919799;29;20052;-70
2022/07/13 11:34:47;;;;;;;6.13;3.23;;;28.30;87.90;;;;;;4931826;29;20043;-71
2022/07/13 11:37:13;;;;;;;4.00;3.50;;;28.40;90.90;;;;;;4931795;29;20047;-70
2022/07/13 11:39:39;;;;;;;4.35;3.38;;;28.60;92.90;;;;;;4914147;29;20059;-70
2022/07/13 11:42:06;;;;;;;6.67;3.27;;;28.70;93.10;;;;;;4930157;29;20395;-70
2022/07/13 11:44:33;;;;;;;5.88;3.50;;;28.80;91.40;;;;;;4925260;29;20087;-69
2022/07/13 11:47:02;;;;;;;4.47;3.45;;;28.80;90.90;;;;;;4913166;29;20040;-69
2022/07/13 11:49:28;;;;;;;6.32;3.30;;;28.90;90.40;;;;;;4909331;29;20095;-69
2022/07/13 11:51:54;;;;;;;3.92;2.90;;;28.70;81.70;;;;;;4905380;29;20086;-70
2022/07/13 11:54:22;;;;;;;6.13;3.37;;;28.50;80.50;;;;;;4919227;29;20457;-70
2022/07/13 11:56:52;;;;;;;8.63;3.22;;;28.30;85.10;;;;;;4900195;29;20090;-71
2022/07/13 11:59:38;;;;;;;11.38;3.13;;;28.10;90.60;;;;;;4908190;29;20500;-70
2022/07/13 12:02:07;;;;;;;4.82;3.08;;;28.00;88.90;;;;;;4909918;29;20044;-69
2022/07/13 12:04:32;;;;;;;5.25;3.05;;;27.90;89.80;;;;;;4910676;29;20056;-70
2022/07/13 12:07:23;;;;;;;3.40;2.80;;;27.80;91.50;;;;;;4926808;29;20510;-70
2022/07/13 12:09:53;;;;;;;5.03;2.78;;;27.70;84.70;;;;;;4900496;29;20063;-70
2022/07/13 12:12:42;;;;;;;3.13;2.55;;;27.60;85.60;;;;;;4913067;29;20055;-70
2022/07/13 12:15:12;;;;;;;2.40;2.20;;;27.60;81.30;;;;;;4911609;29;20048;-70
2022/07/13 12:17:45;;;;;;;4.95;2.35;;;27.70;89.10;;;;;;4908326;29;20511;-69
2022/07/13 12:20:19;;;;;;;2.80;2.42;;;27.80;75.90;;;;;;4906410;29;20044;-69
2022/07/13 12:22:56;;;;;;;3.97;2.30;;;28.00;76.20;;;;;;4907376;29;20516;-71
2022/07/13 12:25:36;;;;;;;5.07;2.00;;;28.20;75.80;;;;;;4911412;29;20056;-70
2022/07/13 12:28:05;;;;;;;5.18;2.28;;;28.30;65.60;;;;;;4912961;29;20070;-71
2022/07/13 12:30:33;;;;;;;3.10;2.22;;;28.40;68.10;;;;;;4913300;29;20048;-71
2022/07/13 12:33:01;;;;;;;2.63;1.70;;;28.40;70.60;;;;;;4909722;29;20103;-70
2022/07/13 12:35:40;;;;;;;6.75;1.83;;;28.40;70.60;;;;;;4910926;29;20089;-70
2022/07/13 12:38:14;;;;;;;3.80;2.08;;;28.50;63.20;;;;;;4901153;29;20048;-70
2022/07/13 12:40:52;;;;;;;3.28;1.70;;;28.60;61.10;;;;;;4910610;29;20051;-70
2022/07/13 12:43:18;;;;;;;4.38;1.85;;;28.70;60.70;;;;;;4912197;29;20051;-69
2022/07/13 12:45:46;;;;;;;4.20;2.00;;;28.90;63.70;;;;;;4912773;29;20044;-70
2022/07/13 12:48:14;;;;;;;5.15;2.13;;;29.00;62.80;;;;;;4911674;29;20488;-70
2022/07/13 12:50:39;;;;;;;7.28;2.22;;;29.10;61.10;;;;;;4925135;29;20139;-69
2022/07/13 12:53:05;;;;;;;4.50;2.27;;;29.20;58.90;;;;;;4912619;29;20139;-70
2022/07/13 12:55:52;;;;;;;5.93;2.45;;;29.30;59.30;;;;;;4913762;29;20036;-70
2022/07/13 12:58:19;;;;;;;6.95;2.58;;;29.20;56.80;;;;;;4914974;29;20052;-69
2022/07/13 13:00:45;;;;;;;4.18;2.20;;;29.10;59.80;;;;;;4911416;29;20119;-70